Time;durP1;ratioP1;P1;durP2;ratioP2;P2;SDS_P1;SDS_P2;PMS_P1;PMS_P2;Temp;Humidity;BMP_temperature;BMP_pressure;BME280_temperature;BME280_humidity;BME280_pressure;Samples;Min_cycle;Max_cycle;Signal;HPM_P1;HPM_P2
2020/12/18 00:02:38;;;;;;;4.32;0.45;;;;;;;8.68;100.00;99059.47;4865537;29;20459;-80
2020/12/18 00:05:42;;;;;;;0.30;0.30;;;;;;;8.73;100.00;99069.84;4865350;29;20449;-81
2020/12/18 00:08:46;;;;;;;0.80;0.17;;;;;;;8.73;100.00;99060.75;4877420;29;20079;-81
2020/12/18 00:11:48;;;;;;;6.22;0.47;;;;;;;8.74;100.00;99068.63;4865749;29;20450;-84
2020/12/18 00:14:51;;;;;;;1.98;0.10;;;;;;;8.80;100.00;99077.78;4866087;29;20690;-84
2020/12/18 00:17:54;;;;;;;0.10;0.10;;;;;;;8.84;100.00;99072.03;4865837;29;20043;-83
2020/12/18 00:20:57;;;;;;;0.10;0.10;;;;;;;8.87;100.00;99079.41;4866000;29;20136;-84
2020/12/18 00:24:00;;;;;;;1.85;0.35;;;;;;;8.87;100.00;99076.63;4865580;29;20095;-83
2020/12/18 00:27:03;;;;;;;0.38;0.15;;;;;;;8.92;100.00;99082.25;4865006;29;20053;-83
2020/12/18 00:30:11;;;;;;;2.42;0.25;;;;;;;8.94;100.00;99076.97;4879189;29;20482;-86
2020/12/18 00:33:14;;;;;;;0.10;0.10;;;;;;;8.92;100.00;99062.06;4848800;29;20104;-85
2020/12/18 00:36:17;;;;;;;0.63;0.45;;;;;;;8.96;100.00;99055.06;4849234;29;20054;-85
2020/12/18 00:39:19;;;;;;;0.20;0.00;;;;;;;8.96;100.00;99057.84;4851317;29;20053;-85
2020/12/18 00:42:22;;;;;;;6.53;0.30;;;;;;;8.95;100.00;99045.19;4852047;29;20064;-83
2020/12/18 00:45:25;;;;;;;4.57;0.20;;;;;;;8.95;100.00;99045.19;4863992;29;20073;-85
2020/12/18 00:48:28;;;;;;;0.00;0.00;;;;;;;8.96;100.00;99046.75;4852362;29;20048;-86
2020/12/18 00:51:31;;;;;;;0.10;0.10;;;;;;;8.98;100.00;99055.34;4852314;29;20044;-83
2020/12/18 00:54:34;;;;;;;0.10;0.00;;;;;;;8.99;100.00;99040.19;4852529;29;20061;-84
2020/12/18 00:57:36;;;;;;;0.35;0.10;;;;;;;9.02;100.00;99039.25;4852595;29;20098;-86
2020/12/18 01:00:39;;;;;;;0.93;0.13;;;;;;;9.04;100.00;99025.63;4852186;29;20068;-87
2020/12/18 01:03:42;;;;;;;0.10;0.10;;;;;;;9.09;100.00;99038.84;4852428;29;20573;-87
2020/12/18 01:06:44;;;;;;;0.25;0.10;;;;;;;9.08;100.00;99042.84;4852259;29;20053;-86
2020/12/18 01:09:47;;;;;;;1.13;0.10;;;;;;;9.10;100.00;99034.78;4863662;29;20070;-85
2020/12/18 01:12:50;;;;;;;0.25;0.25;;;;;;;9.12;100.00;99035.06;4852163;29;20053;-86
2020/12/18 01:15:53;;;;;;;0.22;0.08;;;;;;;9.13;100.00;99031.06;4863472;29;20593;-86
2020/12/18 01:18:56;;;;;;;0.47;0.10;;;;;;;9.14;100.00;99043.69;4863386;29;20048;-86
2020/12/18 01:21:59;;;;;;;0.20;0.20;;;;;;;9.14;100.00;99023.47;4851115;29;20109;-83
2020/12/18 01:25:03;;;;;;;0.03;0.00;;;;;;;9.18;100.00;99030.34;4862844;29;20081;-82
2020/12/18 01:28:06;;;;;;;0.45;0.17;;;;;;;9.23;100.00;99017.00;4851245;29;20101;-83
2020/12/18 01:31:08;;;;;;;4.30;0.45;;;;;;;9.22;100.00;99018.28;4858863;29;20101;-82
2020/12/18 01:34:11;;;;;;;0.08;0.08;;;;;;;9.20;100.00;99031.88;4881025;29;20111;-83
2020/12/18 01:37:14;;;;;;;0.10;0.00;;;;;;;9.23;100.00;99030.91;4869471;29;20172;-83
2020/12/18 01:40:17;;;;;;;0.00;0.00;;;;;;;9.25;100.00;99025.66;4881017;29;20056;-83
2020/12/18 01:43:20;;;;;;;0.03;0.00;;;;;;;9.27;100.00;99031.47;4881073;29;20516;-83
2020/12/18 01:46:27;;;;;;;0.10;0.10;;;;;;;9.27;100.00;99031.47;4880523;29;20056;-83
2020/12/18 01:49:31;;;;;;;0.38;0.20;;;;;;;9.27;100.00;99039.81;4879471;29;20101;-83
2020/12/18 01:52:34;;;;;;;6.93;0.40;;;;;;;9.28;100.00;99033.00;4868615;29;20405;-83
2020/12/18 01:55:37;;;;;;;0.20;0.20;;;;;;;9.31;100.00;99032.03;4880623;29;20056;-82
2020/12/18 01:58:41;;;;;;;1.50;0.10;;;;;;;9.33;100.00;99032.31;4868864;29;20098;-82
2020/12/18 02:01:45;;;;;;;6.03;0.47;;;;;;;9.35;100.00;99027.78;4880463;29;20422;-83
2020/12/18 02:04:48;;;;;;;0.20;0.00;;;;;;;9.40;100.00;99040.22;4880532;29;20056;-82
2020/12/18 02:08:03;;;;;;;0.10;0.10;;;;;;;9.42;100.00;99038.47;4880447;29;20052;-82
2020/12/18 02:11:05;;;;;;;0.20;0.10;;;;;;;9.44;100.00;99043.56;4868947;29;20128;-83
2020/12/18 02:14:12;;;;;;;0.20;0.00;;;;;;;9.46;100.00;99043.84;4880262;29;20056;-82
2020/12/18 02:17:15;;;;;;;0.10;0.00;;;;;;;9.47;100.00;99040.56;4880250;29;20049;-83
2020/12/18 02:20:18;;;;;;;0.00;0.00;;;;;;;9.49;100.00;99042.84;4880205;29;20165;-82
2020/12/18 02:23:21;;;;;;;0.10;0.10;;;;;;;9.54;100.00;99044.94;4868477;29;20135;-83
2020/12/18 02:26:24;;;;;;;0.00;0.00;;;;;;;9.55;100.00;99047.22;4868366;29;20163;-82
2020/12/18 02:29:27;;;;;;;0.17;0.00;;;;;;;9.57;100.00;99055.09;4879889;29;20068;-82
2020/12/18 02:32:30;;;;;;;0.00;0.00;;;;;;;9.52;100.00;99041.88;4879913;29;20573;-82
2020/12/18 02:35:36;;;;;;;0.10;0.10;;;;;;;9.54;100.00;99040.13;4879604;29;20048;-82
2020/12/18 02:38:39;;;;;;;0.30;0.00;;;;;;;9.57;100.00;99047.47;4880007;29;20517;-82
2020/12/18 02:41:42;;;;;;;0.00;0.00;;;;;;;9.57;100.00;99027.28;4878940;29;20077;-82
2020/12/18 02:44:45;;;;;;;0.10;0.10;;;;;;;9.57;100.00;99039.16;4878874;29;20048;-82
2020/12/18 02:47:47;;;;;;;0.00;0.00;;;;;;;9.60;100.00;99048.53;4879546;29;20088;-81
2020/12/18 02:50:51;;;;;;;0.08;0.08;;;;;;;9.60;100.00;99037.41;4879718;29;20073;-82
2020/12/18 02:53:54;;;;;;;3.28;0.15;;;;;;;9.60;100.00;99037.41;4878719;29;20043;-82
2020/12/18 02:56:57;;;;;;;0.08;0.03;;;;;;;9.62;100.00;99040.47;4878616;29;20052;-82
2020/12/18 02:59:59;;;;;;;0.03;0.00;;;;;;;9.61;100.00;99030.63;4879540;29;20056;-84
2020/12/18 03:03:04;;;;;;;4.80;0.57;;;;;;;9.65;100.00;99028.38;4879371;29;20469;-82
2020/12/18 03:06:07;;;;;;;0.00;0.00;;;;;;;9.67;100.00;99028.66;4879435;29;20402;-82
2020/12/18 03:09:10;;;;;;;0.00;0.00;;;;;;;9.66;100.00;99016.00;4878505;29;20048;-82
2020/12/18 03:12:12;;;;;;;0.00;0.00;;;;;;;9.68;100.00;99010.72;4879528;29;20077;-82
2020/12/18 03:15:16;;;;;;;0.00;0.00;;;;;;;9.66;100.00;99007.66;4879398;29;20048;-83
2020/12/18 03:18:19;;;;;;;0.10;0.10;;;;;;;9.67;100.00;98989.72;4879095;29;20561;-82
2020/12/18 03:21:21;;;;;;;0.10;0.10;;;;;;;9.69;100.00;98978.88;4878971;29;20120;-84
2020/12/18 03:24:25;;;;;;;0.05;0.00;;;;;;;9.71;100.00;98993.06;4878627;29;20675;-81
2020/12/18 03:27:27;;;;;;;0.30;0.10;;;;;;;9.70;100.00;98992.28;4879327;29;20075;-83
2020/12/18 03:30:30;;;;;;;0.10;0.10;;;;;;;9.70;100.00;98974.84;4879221;29;20095;-82
2020/12/18 03:33:33;;;;;;;0.10;0.00;;;;;;;9.70;100.00;98972.06;4867666;29;20413;-83
2020/12/18 03:36:36;;;;;;;0.20;0.20;;;;;;;9.72;100.00;98961.22;4878960;29;20150;-82
2020/12/18 03:39:39;;;;;;;0.45;0.10;;;;;;;9.73;100.00;98951.63;4878833;29;20573;-82
2020/12/18 03:42:43;;;;;;;0.00;0.00;;;;;;;9.78;100.00;98937.00;4867523;29;20185;-83
2020/12/18 03:45:46;;;;;;;0.45;0.45;;;;;;;9.76;100.00;98950.66;4867053;29;20450;-82
2020/12/18 03:48:48;;;;;;;0.10;0.10;;;;;;;9.79;100.00;98952.44;4867493;29;20047;-82
2020/12/18 03:51:51;;;;;;;0.10;0.10;;;;;;;9.80;100.00;98948.41;4878855;29;20112;-82
2020/12/18 03:54:54;;;;;;;0.00;0.00;;;;;;;9.84;100.00;98937.81;4878973;29;20076;-83
2020/12/18 03:57:57;;;;;;;0.30;0.30;;;;;;;9.82;100.00;98932.75;4878227;29;20079;-83
2020/12/18 04:01:00;;;;;;;0.63;0.25;;;;;;;9.78;100.00;98915.53;4878401;29;20517;-83
2020/12/18 04:04:02;;;;;;;0.00;0.00;;;;;;;9.80;100.00;98921.38;4878529;29;20484;-82
2020/12/18 04:07:05;;;;;;;0.22;0.10;;;;;;;9.83;100.00;98911.28;4867088;29;20048;-83
2020/12/18 04:10:08;;;;;;;0.10;0.10;;;;;;;9.84;100.00;98915.56;4867357;29;20052;-83
2020/12/18 04:13:11;;;;;;;0.08;0.08;;;;;;;9.80;100.00;98915.03;4879801;29;20068;-83
2020/12/18 04:16:14;;;;;;;0.20;0.20;;;;;;;9.78;100.00;98935.00;4871190;29;20039;-82
2020/12/18 04:19:18;;;;;;;0.00;0.00;;;;;;;9.78;100.00;98935.00;4882474;29;20505;-83
2020/12/18 04:22:20;;;;;;;0.03;0.00;;;;;;;9.79;100.00;98933.72;4882338;29;20561;-83
2020/12/18 04:25:23;;;;;;;0.00;0.00;;;;;;;9.82;100.00;98948.66;4870819;29;20105;-83
2020/12/18 04:28:26;;;;;;;0.00;0.00;;;;;;;9.83;100.00;98955.78;4882268;29;20055;-83
2020/12/18 04:31:29;;;;;;;0.00;0.00;;;;;;;9.83;100.00;98950.22;4882132;29;20051;-83
2020/12/18 04:34:32;;;;;;;0.00;0.00;;;;;;;9.85;100.00;98950.47;4882200;29;20517;-83
2020/12/18 04:37:35;;;;;;;0.00;0.00;;;;;;;9.84;100.00;98962.84;4881306;29;20100;-84
2020/12/18 04:40:39;;;;;;;0.10;0.00;;;;;;;9.85;100.00;98978.28;4881288;29;20052;-84
2020/12/18 04:43:42;;;;;;;0.00;0.00;;;;;;;9.83;100.00;98966.91;4881372;29;20109;-82
2020/12/18 04:46:49;;;;;;;0.28;0.10;;;;;;;9.84;100.00;98962.84;4881802;29;20505;-83
2020/12/18 04:49:52;;;;;;;0.10;0.00;;;;;;;9.78;100.00;98948.13;4881649;29;20067;-84
2020/12/18 04:52:57;;;;;;;0.10;0.10;;;;;;;9.82;100.00;98952.22;4881703;29;20154;-84
2020/12/18 04:56:09;;;;;;;0.03;0.00;;;;;;;9.86;100.00;98949.22;4881505;29;20426;-82
2020/12/18 04:59:15;;;;;;;0.00;0.00;;;;;;;9.85;100.00;98936.56;4881105;29;20109;-82
2020/12/18 05:02:18;;;;;;;0.00;0.00;;;;;;;9.90;100.00;98935.84;4881744;29;20180;-83
2020/12/18 05:05:21;;;;;;;0.13;0.05;;;;;;;9.87;100.00;98923.69;4880693;29;20115;-83
2020/12/18 05:08:27;;;;;;;0.10;0.00;;;;;;;9.89;100.00;98931.53;4880842;29;20101;-83
2020/12/18 05:11:30;;;;;;;0.10;0.00;;;;;;;9.90;100.00;98927.50;4880890;29;20101;-83
2020/12/18 05:14:34;;;;;;;0.00;0.00;;;;;;;9.91;100.00;98929.03;4881171;29;20083;-82
2020/12/18 05:17:37;;;;;;;0.00;0.00;;;;;;;9.88;100.00;98930.78;4881664;29;20097;-84
2020/12/18 05:20:41;;;;;;;0.00;0.00;;;;;;;9.92;100.00;98924.97;4881290;29;20048;-84
2020/12/18 05:23:46;;;;;;;0.10;0.10;;;;;;;9.89;100.00;98898.19;4881154;29;20113;-84
2020/12/18 05:26:49;;;;;;;0.55;0.00;;;;;;;9.88;100.00;98891.06;4880915;29;20048;-83
2020/12/18 05:29:52;;;;;;;0.00;0.00;;;;;;;9.88;100.00;98893.84;4880738;29;20049;-83
2020/12/18 05:32:55;;;;;;;0.05;0.00;;;;;;;9.92;100.00;98903.50;4862562;29;20084;-83
2020/12/18 05:35:59;;;;;;;0.10;0.10;;;;;;;9.96;100.00;98914.41;4851232;29;20098;-83
2020/12/18 05:39:01;;;;;;;0.17;0.10;;;;;;;9.94;100.00;98906.56;4862810;29;20068;-83
2020/12/18 05:42:04;;;;;;;0.10;0.10;;;;;;;9.92;100.00;98917.41;4851176;29;20105;-82
2020/12/18 05:45:18;;;;;;;0.10;0.00;;;;;;;9.93;100.00;98907.06;4851136;29;20049;-83
2020/12/18 05:48:20;;;;;;;0.00;0.00;;;;;;;9.95;100.00;98901.75;4851042;29;20125;-83
2020/12/18 05:51:34;;;;;;;0.00;0.00;;;;;;;9.97;100.00;98904.81;4862332;29;20164;-83
2020/12/18 05:54:38;;;;;;;0.20;0.10;;;;;;;9.98;100.00;98900.78;4862377;29;20256;-83
2020/12/18 05:57:41;;;;;;;0.08;0.00;;;;;;;10.00;100.00;98903.81;4861914;29;20049;-82
2020/12/18 06:00:43;;;;;;;0.10;0.10;;;;;;;10.00;100.00;98908.63;4850870;29;20529;-83
2020/12/18 06:03:51;;;;;;;0.20;0.00;;;;;;;10.02;100.00;98915.22;4862134;29;20072;-83
2020/12/18 06:06:56;;;;;;;0.20;0.00;;;;;;;10.03;100.00;98913.22;4852765;29;20045;-83
2020/12/18 06:10:00;;;;;;;0.10;0.00;;;;;;;10.02;100.00;98928.34;4861349;29;20049;-84
2020/12/18 06:13:03;;;;;;;0.10;0.10;;;;;;;10.02;100.00;98918.00;4861575;29;20102;-83
2020/12/18 06:16:10;;;;;;;0.40;0.22;;;;;;;9.98;100.00;98905.56;4861893;29;20141;-83
2020/12/18 06:19:16;;;;;;;0.13;0.00;;;;;;;9.97;100.00;98893.69;4862114;29;20121;-85
2020/12/18 06:22:20;;;;;;;0.00;0.00;;;;;;;9.97;100.00;98890.91;4850079;29;20070;-83
2020/12/18 06:25:23;;;;;;;0.10;0.10;;;;;;;9.97;100.00;98888.13;4861583;29;20080;-84
2020/12/18 06:28:26;;;;;;;0.10;0.10;;;;;;;10.01;100.00;98896.22;4861491;29;20101;-83
2020/12/18 06:31:31;;;;;;;0.00;0.00;;;;;;;10.02;100.00;98895.75;4860417;29;20052;-80
2020/12/18 06:34:34;;;;;;;0.00;0.00;;;;;;;10.02;100.00;98889.41;4880006;29;20104;-83
2020/12/18 06:37:36;;;;;;;0.10;0.05;;;;;;;9.99;100.00;98880.03;4879682;29;20070;-82
2020/12/18 06:40:40;;;;;;;0.00;0.00;;;;;;;9.96;100.00;98874.72;4880145;29;20518;-82
2020/12/18 06:43:43;;;;;;;0.43;0.20;;;;;;;9.96;100.00;98869.16;4878896;29;20052;-83
2020/12/18 06:47:05;;;;;;;0.10;0.10;;;;;;;9.94;100.00;98869.63;4879800;29;20079;-85
2020/12/18 06:50:11;;;;;;;0.00;0.00;;;;;;;9.96;100.00;98861.56;4868748;29;20123;-85
2020/12/18 06:53:15;;;;;;;0.20;0.10;;;;;;;9.96;100.00;98858.03;4867776;29;20460;-84
2020/12/18 06:56:27;;;;;;;0.10;0.00;;;;;;;9.95;100.00;98862.81;4860449;29;20106;-84
2020/12/18 06:59:30;;;;;;;0.10;0.10;;;;;;;9.94;100.00;98864.06;4861076;29;20056;-84
2020/12/18 07:02:33;;;;;;;1.73;0.30;;;;;;;9.96;100.00;98874.72;4860029;29;20070;-83
2020/12/18 07:05:38;;;;;;;0.13;0.10;;;;;;;9.95;100.00;98865.59;4861146;29;20570;-84
2020/12/18 07:08:41;;;;;;;0.10;0.10;;;;;;;9.98;100.00;98861.84;4860962;29;20073;-83
2020/12/18 07:11:45;;;;;;;0.30;0.10;;;;;;;9.97;100.00;98865.88;4860491;29;20122;-85
2020/12/18 07:14:49;;;;;;;0.10;0.10;;;;;;;9.97;100.00;98848.41;4860883;29;20048;-85
2020/12/18 07:17:55;;;;;;;6.70;0.40;;;;;;;9.99;100.00;98860.56;4860625;29;20041;-84
2020/12/18 07:21:00;;;;;;;4.53;0.40;;;;;;;9.99;100.00;98846.66;4860596;29;20053;-85
2020/12/18 07:24:02;;;;;;;4.13;0.52;;;;;;;9.97;100.00;98849.19;4860847;29;20411;-84
2020/12/18 07:27:05;;;;;;;0.22;0.10;;;;;;;9.98;100.00;98844.38;4859227;29;20084;-85
2020/12/18 07:30:09;;;;;;;1.33;0.20;;;;;;;9.98;100.00;98834.03;4860921;29;20109;-84
2020/12/18 07:33:14;;;;;;;2.15;1.05;;;;;;;9.99;100.00;98834.78;4841448;29;20474;-84
2020/12/18 07:36:18;;;;;;;2.25;0.55;;;;;;;9.99;100.00;98841.09;4841477;29;20431;-85
2020/12/18 07:39:20;;;;;;;0.00;0.00;;;;;;;10.04;100.00;98842.41;4841452;29;20061;-85
2020/12/18 07:42:24;;;;;;;0.00;0.00;;;;;;;10.04;100.00;98843.16;4841988;29;20444;-85
2020/12/18 07:45:26;;;;;;;0.45;0.13;;;;;;;10.06;100.00;98842.66;4841598;29;20057;-83
2020/12/18 07:48:32;;;;;;;1.00;0.20;;;;;;;10.06;100.00;98853.78;4841187;29;20056;-85
2020/12/18 07:51:36;;;;;;;0.03;0.00;;;;;;;10.08;100.00;98863.16;4841326;29;20415;-85
2020/12/18 07:54:39;;;;;;;2.00;0.30;;;;;;;10.14;100.00;98857.66;4842154;29;20530;-85
2020/12/18 07:57:42;;;;;;;1.27;0.00;;;;;;;10.14;100.00;98858.41;4840651;29;20130;-84
2020/12/18 08:00:44;;;;;;;1.75;0.03;;;;;;;10.16;100.00;98861.47;4841922;29;20097;-84
2020/12/18 08:03:54;;;;;;;0.30;0.17;;;;;;;10.18;100.00;98853.38;4841670;29;20057;-84
2020/12/18 08:06:59;;;;;;;1.13;0.10;;;;;;;10.22;100.00;98842.78;4841659;29;20517;-83
2020/12/18 08:10:03;;;;;;;0.00;0.00;;;;;;;10.20;100.00;98839.72;4842274;29;20092;-86
2020/12/18 08:13:06;;;;;;;0.10;0.00;;;;;;;10.21;100.00;98832.16;4841427;29;20044;-85
2020/12/18 08:16:11;;;;;;;0.50;0.38;;;;;;;10.21;100.00;98829.38;4842317;29;20049;-87
2020/12/18 08:19:14;;;;;;;0.10;0.05;;;;;;;10.18;100.00;98817.22;4840527;29;20076;-86
2020/12/18 08:22:19;;;;;;;1.08;0.30;;;;;;;10.20;100.00;98811.16;4840694;29;20049;-88
2020/12/18 08:25:23;;;;;;;1.02;0.45;;;;;;;10.22;100.00;98820.53;4841154;29;20122;-83
2020/12/18 08:28:28;;;;;;;0.00;0.00;;;;;;;10.21;100.00;98815.47;4841634;29;20061;-83
2020/12/18 08:31:35;;;;;;;0.10;0.10;;;;;;;10.23;100.00;98805.34;4841368;29;20075;-84
2020/12/18 08:34:37;;;;;;;1.10;0.20;;;;;;;10.25;100.00;98808.41;4840911;29;20125;-84
2020/12/18 08:37:40;;;;;;;0.73;0.20;;;;;;;10.28;100.00;98812.97;4841412;29;20170;-85
2020/12/18 08:40:43;;;;;;;5.10;0.20;;;;;;;10.26;100.00;98820.31;4841432;29;20102;-83
2020/12/18 08:43:46;;;;;;;0.15;0.00;;;;;;;10.27;100.00;98833.72;4849043;29;20053;-82
2020/12/18 08:46:50;;;;;;;0.20;0.00;;;;;;;10.29;100.00;98825.63;4850025;29;20102;-84
2020/12/18 08:49:55;;;;;;;0.55;0.20;;;;;;;10.35;100.00;98820.84;4823259;29;20064;-84
2020/12/18 08:53:08;;;;;;;3.53;1.10;;;;;;;10.37;100.00;98806.44;4835094;29;20121;-83
2020/12/18 08:56:11;;;;;;;0.68;0.10;;;;;;;10.35;100.00;98804.13;4865792;29;20063;-86
2020/12/18 08:59:15;;;;;;;0.20;0.10;;;;;;;10.36;100.00;98802.91;4867765;29;20117;-83
2020/12/18 09:02:18;;;;;;;0.10;0.10;;;;;;;10.42;100.00;98812.03;4881686;29;20112;-83
2020/12/18 09:05:28;;;;;;;0.88;0.10;;;;;;;10.42;100.00;98817.59;4881828;29;20092;-83
2020/12/18 09:08:30;;;;;;;0.00;0.00;;;;;;;10.45;100.00;98827.72;4881466;29;20129;-84
2020/12/18 09:11:33;;;;;;;0.10;0.10;;;;;;;10.47;100.00;98802.16;4881508;29;20144;-84
2020/12/18 09:14:36;;;;;;;0.25;0.08;;;;;;;10.48;100.00;98812.78;4881125;29;20438;-83
2020/12/18 09:17:39;;;;;;;0.45;0.30;;;;;;;10.45;100.00;98811.03;4869590;29;20043;-82
2020/12/18 09:20:44;;;;;;;0.20;0.17;;;;;;;10.44;100.00;98826.19;4869764;29;20097;-82
2020/12/18 09:23:47;;;;;;;0.43;0.25;;;;;;;10.47;100.00;98847.47;4880358;29;20454;-81
2020/12/18 09:26:50;;;;;;;0.22;0.20;;;;;;;10.45;100.00;98838.88;4881091;29;20144;-83
2020/12/18 09:29:59;;;;;;;0.63;0.25;;;;;;;10.50;100.00;98835.31;4869538;29;20109;-83
2020/12/18 09:33:12;;;;;;;0.10;0.10;;;;;;;10.50;100.00;98829.75;4862487;29;20053;-85
2020/12/18 09:36:21;;;;;;;0.55;0.10;;;;;;;10.47;100.00;98844.69;4851128;29;20513;-84
2020/12/18 09:39:24;;;;;;;0.00;0.00;;;;;;;10.46;100.00;98829.25;4862650;29;20125;-84
2020/12/18 09:42:27;;;;;;;0.68;0.10;;;;;;;10.48;100.00;98820.41;4862247;29;20093;-83
2020/12/18 09:45:30;;;;;;;0.47;0.30;;;;;;;10.49;100.00;98825.47;4862610;29;20550;-82
2020/12/18 09:48:32;;;;;;;0.52;0.28;;;;;;;10.49;100.00;98817.13;4862126;29;20060;-83
2020/12/18 09:51:36;;;;;;;0.10;0.10;;;;;;;10.51;100.00;98795.09;4862224;29;20052;-83
2020/12/18 09:54:39;;;;;;;0.10;0.10;;;;;;;10.49;100.00;98778.16;4850724;29;20064;-83
2020/12/18 09:57:42;;;;;;;0.00;0.00;;;;;;;10.54;100.00;98779.44;4850557;29;20052;-83
2020/12/18 10:00:45;;;;;;;0.03;0.00;;;;;;;10.56;100.00;98774.88;4862030;29;20116;-86
2020/12/18 10:03:48;;;;;;;0.00;0.00;;;;;;;10.51;100.00;98763.72;4854964;29;20088;-87
2020/12/18 10:06:51;;;;;;;0.20;0.10;;;;;;;10.52;100.00;98771.59;4880082;29;20101;-82
2020/12/18 10:09:53;;;;;;;0.15;0.15;;;;;;;10.53;100.00;98766.75;4880148;29;20044;-83
2020/12/18 10:12:57;;;;;;;0.20;0.20;;;;;;;10.53;100.00;98750.06;4869229;29;20044;-83
2020/12/18 10:16:01;;;;;;;0.03;0.03;;;;;;;10.61;100.00;98728.84;4880370;29;20063;-83
2020/12/18 10:19:03;;;;;;;1.30;0.38;;;;;;;10.63;100.00;98710.34;4868684;29;20055;-82
2020/12/18 10:22:06;;;;;;;0.20;0.13;;;;;;;10.66;100.00;98683.53;4868589;29;20052;-82
2020/12/18 10:25:09;;;;;;;0.52;0.28;;;;;;;10.71;100.00;98702.28;4880308;29;20562;-82
2020/12/18 10:28:12;;;;;;;1.75;0.22;;;;;;;10.71;100.00;98693.91;4880339;29;20398;-84
2020/12/18 10:31:15;;;;;;;0.28;0.28;;;;;;;10.65;100.00;98707.81;4879493;29;20113;-83
2020/12/18 10:34:18;;;;;;;0.00;0.00;;;;;;;10.63;100.00;98695.69;4880663;29;20048;-82
2020/12/18 10:37:22;;;;;;;0.38;0.38;;;;;;;10.59;100.00;98700.72;4869000;29;20188;-83
2020/12/18 10:40:24;;;;;;;0.05;0.05;;;;;;;10.59;100.00;98670.88;4868677;29;20068;-82
2020/12/18 10:43:27;;;;;;;0.00;0.00;;;;;;;10.59;100.00;98664.53;4880004;29;20104;-82
2020/12/18 10:46:30;;;;;;;0.10;0.00;;;;;;;10.59;100.00;98659.72;4880006;29;20048;-83
2020/12/18 10:49:33;;;;;;;0.00;0.00;;;;;;;10.62;100.00;98663.53;4880374;29;20045;-82
2020/12/18 10:52:36;;;;;;;0.43;0.20;;;;;;;10.64;100.00;98686.81;4880379;29;20047;-81
2020/12/18 10:55:39;;;;;;;0.20;0.05;;;;;;;10.64;100.00;98667.34;4868565;29;20193;-83
2020/12/18 10:58:41;;;;;;;0.00;0.00;;;;;;;10.64;100.00;98664.53;4880469;29;20133;-82
2020/12/18 11:01:46;;;;;;;0.10;0.00;;;;;;;10.64;100.00;98661.75;4880198;29;20513;-83
2020/12/18 11:04:49;;;;;;;0.00;0.00;;;;;;;10.65;100.00;98651.41;4879832;29;20060;-83
2020/12/18 11:07:51;;;;;;;0.10;0.10;;;;;;;10.64;100.00;98658.97;4880106;29;20052;-83
2020/12/18 11:10:54;;;;;;;0.10;0.10;;;;;;;10.61;100.00;98682.25;4879897;29;20132;-83
2020/12/18 11:13:57;;;;;;;0.00;0.00;;;;;;;10.59;100.00;98709.84;4880095;29;20056;-82
2020/12/18 11:17:00;;;;;;;0.10;0.10;;;;;;;10.63;100.00;98715.19;4879546;29;20309;-84
2020/12/18 11:20:03;;;;;;;0.00;0.00;;;;;;;10.67;100.00;98698.97;4867891;29;20051;-83
2020/12/18 11:23:06;;;;;;;0.10;0.00;;;;;;;10.65;100.00;98702.25;4879233;29;20055;-84
2020/12/18 11:26:11;;;;;;;0.10;0.10;;;;;;;10.65;100.00;98693.16;4868363;29;20089;-83
2020/12/18 11:29:14;;;;;;;0.00;0.00;;;;;;;10.63;100.00;98696.44;4879700;29;20570;-84
2020/12/18 11:32:18;;;;;;;1.70;0.40;;;;;;;10.66;100.00;98698.22;4876330;29;20517;-82
2020/12/18 11:35:21;;;;;;;0.20;0.10;;;;;;;10.65;100.00;98693.91;4879773;29;20463;-82
2020/12/18 11:38:23;;;;;;;4.07;0.22;;;;;;;10.65;100.00;98705.03;4878465;29;20041;-85
2020/12/18 11:41:26;;;;;;;3.38;1.70;;;;;;;10.70;100.00;98702.78;4878664;29;20132;-84
2020/12/18 11:44:29;;;;;;;4.32;1.88;;;;;;;10.70;100.00;98713.91;4878077;29;20100;-84
2020/12/18 11:47:32;;;;;;;0.20;0.10;;;;;;;10.68;100.00;98706.81;4877880;29;20100;-82
2020/12/18 11:50:35;;;;;;;0.45;0.30;;;;;;;10.71;100.00;98718.22;4879023;29;20052;-82
2020/12/18 11:53:38;;;;;;;0.13;0.13;;;;;;;10.73;100.00;98707.31;4878858;29;20124;-84
2020/12/18 11:56:40;;;;;;;0.47;0.10;;;;;;;10.77;100.00;98713.41;4877170;29;20055;-83
2020/12/18 11:59:44;;;;;;;0.40;0.10;;;;;;;10.78;100.00;98710.13;4878338;29;20063;-81
2020/12/18 12:02:51;;;;;;;0.20;0.10;;;;;;;10.78;100.00;98709.38;4878189;29;20505;-85
2020/12/18 12:05:54;;;;;;;0.05;0.03;;;;;;;10.80;100.00;98712.41;4878975;29;20052;-83
2020/12/18 12:09:03;;;;;;;0.38;0.17;;;;;;;10.82;100.00;98707.09;4879173;29;20096;-85
2020/12/18 12:12:12;;;;;;;0.10;0.00;;;;;;;10.85;100.00;98715.19;4868097;29;20666;-87
2020/12/18 12:15:16;;;;;;;0.00;0.00;;;;;;;10.83;100.00;98705.84;4867920;29;20459;-86
2020/12/18 12:18:18;;;;;;;1.17;0.45;;;;;;;10.86;100.00;98718.75;4878688;29;20043;-82
2020/12/18 12:21:21;;;;;;;0.20;0.20;;;;;;;10.88;100.00;98705.81;4867138;29;20100;-83
2020/12/18 12:24:24;;;;;;;0.00;0.00;;;;;;;10.85;100.00;98672.66;4878957;29;20520;-85
2020/12/18 12:27:27;;;;;;;0.10;0.00;;;;;;;10.81;100.00;98675.69;4878631;29;20048;-80
2020/12/18 12:30:30;;;;;;;0.17;0.00;;;;;;;10.86;100.00;98682.53;4878932;29;20044;-79
2020/12/18 12:33:33;;;;;;;0.65;0.47;;;;;;;10.86;100.00;98676.97;4878092;29;20047;-80
2020/12/18 12:36:35;;;;;;;0.22;0.22;;;;;;;10.90;100.00;98683.03;4881727;29;20118;-80
2020/12/18 12:39:39;;;;;;;0.10;0.10;;;;;;;10.91;100.00;98665.06;4882643;29;20112;-82
2020/12/18 12:42:42;;;;;;;0.00;0.00;;;;;;;10.94;100.00;98656.44;4870383;29;20063;-83
2020/12/18 12:45:45;;;;;;;0.10;0.00;;;;;;;10.92;100.00;98647.06;4870284;29;20591;-83
2020/12/18 12:48:49;;;;;;;0.20;0.08;;;;;;;10.88;100.00;98629.88;4881263;29;20056;-82
2020/12/18 12:51:56;;;;;;;0.28;0.10;;;;;;;10.84;100.00;98657.97;4881844;29;20424;-81
2020/12/18 12:55:00;;;;;;;0.20;0.00;;;;;;;10.84;100.00;98630.13;4870486;29;20105;-81
2020/12/18 12:58:03;;;;;;;0.65;0.38;;;;;;;10.81;100.00;98596.94;4882248;29;20040;-84
2020/12/18 13:01:06;;;;;;;0.00;0.00;;;;;;;10.79;100.00;98586.31;4870364;29;20104;-81
2020/12/18 13:04:09;;;;;;;0.20;0.20;;;;;;;10.78;100.00;98592.41;4870540;29;20093;-81
2020/12/18 13:07:12;;;;;;;0.10;0.00;;;;;;;10.74;100.00;98583.56;4881535;29;20048;-82
2020/12/18 13:10:15;;;;;;;0.10;0.10;;;;;;;10.70;100.00;98553.16;4871103;29;20063;-84
2020/12/18 13:13:17;;;;;;;0.00;0.00;;;;;;;10.66;100.00;98545.09;4870598;29;20048;-82
2020/12/18 13:16:21;;;;;;;0.00;0.00;;;;;;;10.72;100.00;98561.03;4881539;29;20524;-80
2020/12/18 13:19:27;;;;;;;0.10;0.10;;;;;;;10.76;100.00;98581.03;4881572;29;20075;-82
2020/12/18 13:22:30;;;;;;;0.10;0.10;;;;;;;10.79;100.00;98582.78;4881615;29;20398;-81
2020/12/18 13:25:33;;;;;;;1.05;0.28;;;;;;;10.80;100.00;98573.16;4881870;29;20108;-82
2020/12/18 13:28:36;;;;;;;0.00;0.00;;;;;;;10.83;100.00;98566.59;4881436;29;20048;-80
2020/12/18 13:31:39;;;;;;;0.20;0.20;;;;;;;10.83;100.00;98572.16;4873390;29;20052;-80
2020/12/18 13:34:42;;;;;;;0.00;0.00;;;;;;;10.79;100.00;98566.84;4881686;29;20466;-81
2020/12/18 13:37:46;;;;;;;0.00;0.00;;;;;;;10.80;100.00;98556.47;4881315;29;20452;-82
2020/12/18 13:40:49;;;;;;;0.00;0.00;;;;;;;10.81;100.00;98566.31;4881645;29;20055;-85
2020/12/18 13:43:51;;;;;;;0.10;0.10;;;;;;;10.84;100.00;98573.66;4880802;29;20124;-86
2020/12/18 13:46:55;;;;;;;0.00;0.00;;;;;;;10.87;100.00;98562.25;4880562;29;20525;-83
2020/12/18 13:50:00;;;;;;;0.10;0.08;;;;;;;10.88;100.00;98555.44;4880287;29;20532;-85
2020/12/18 13:53:03;;;;;;;1.65;0.20;;;;;;;10.89;100.00;98564.56;4879750;29;20093;-82
2020/12/18 13:56:06;;;;;;;0.00;0.00;;;;;;;10.93;100.00;98578.97;4879423;29;20136;-82
2020/12/18 13:59:09;;;;;;;0.05;0.00;;;;;;;10.95;100.00;98573.66;4879698;29;20147;-83
2020/12/18 14:02:12;;;;;;;0.00;0.00;;;;;;;10.94;100.00;98578.47;4879368;29;20068;-83
2020/12/18 14:05:14;;;;;;;0.00;0.00;;;;;;;10.93;100.00;98571.38;4879582;29;20051;-84
2020/12/18 14:08:17;;;;;;;0.00;0.00;;;;;;;10.97;100.00;98587.81;4880391;29;20403;-85
2020/12/18 14:11:20;;;;;;;0.10;0.00;;;;;;;10.95;100.00;98585.56;4879490;29;20076;-86
2020/12/18 14:14:23;;;;;;;0.00;0.00;;;;;;;10.97;100.00;98587.81;4880060;29;20048;-85
2020/12/18 14:17:26;;;;;;;0.10;0.10;;;;;;;11.00;100.00;98575.69;4879443;29;20489;-84
2020/12/18 14:20:29;;;;;;;0.10;0.10;;;;;;;11.02;100.00;98573.13;4880178;29;20162;-83